Time;durP1;ratioP1;P1;durP2;ratioP2;P2;SDS_P1;SDS_P2;PMS_P1;PMS_P2;Temp;Humidity;BMP_temperature;BMP_pressure;BME280_temperature;BME280_humidity;BME280_pressure;Samples;Min_cycle;Max_cycle;Signal;HPM_P1;HPM_P2
2021/08/02 00:00:02;;;;;;;39.75;26.60;;;;;;;21.41;77.74;100749.89;1858246;77;21042;-65
2021/08/02 00:02:41;;;;;;;48.68;24.35;;;;;;;21.36;78.09;100754.81;1856871;77;21204;-65
2021/08/02 00:05:10;;;;;;;47.50;29.57;;;;;;;21.33;77.89;100761.76;1857852;76;21050;-65
2021/08/02 00:07:41;;;;;;;43.63;27.45;;;;;;;21.32;78.21;100764.06;1855254;77;21521;-66
2021/08/02 00:10:12;;;;;;;33.13;19.48;;;;;;;21.31;78.05;100753.01;1851920;77;21027;-65
2021/08/02 00:12:46;;;;;;;30.20;18.17;;;;;;;21.30;78.02;100756.19;1851052;76;21555;-65
2021/08/02 00:15:18;;;;;;;30.90;17.75;;;;;;;21.32;77.66;100756.03;1851915;77;21050;-65
2021/08/02 00:17:47;;;;;;;35.58;20.97;;;;;;;21.32;77.51;100756.03;1851825;77;21047;-66
2021/08/02 00:20:19;;;;;;;31.82;19.50;;;;;;;21.32;77.83;100750.67;1851991;77;21043;-66
2021/08/02 00:22:48;;;;;;;30.52;19.95;;;;;;;21.28;77.95;100753.26;1852093;77;21168;-66
2021/08/02 00:25:18;;;;;;;37.83;22.87;;;;;;;21.29;77.71;100756.31;1852028;77;21113;-66
2021/08/02 00:27:47;;;;;;;34.23;20.90;;;;;;;21.30;77.85;100752.63;1852099;77;21074;-65
2021/08/02 00:30:16;;;;;;;34.15;22.15;;;;;;;21.29;77.83;100750.45;1851929;77;21054;-66
2021/08/02 00:32:45;;;;;;;34.18;19.50;;;;;;;21.29;77.86;100752.30;1851968;77;21050;-65
2021/08/02 00:35:14;;;;;;;35.73;18.37;;;;;;;21.29;77.82;100754.97;1852034;77;21156;-65
2021/08/02 00:37:45;;;;;;;31.35;19.55;;;;;;;21.28;77.74;100749.23;1851982;77;21082;-66
2021/08/02 00:40:33;;;;;;;35.48;20.23;;;;;;;21.26;77.83;100748.52;1851417;76;21478;-65
2021/08/02 00:43:25;;;;;;;40.33;25.68;;;;;;;21.24;77.89;100749.98;1851867;77;21071;-65
2021/08/02 00:45:54;;;;;;;50.88;27.77;;;;;;;21.24;77.95;100749.14;1851408;77;21505;-65
2021/08/02 00:48:26;;;;;;;31.85;21.87;;;;;;;21.24;77.84;100747.80;1852124;77;21047;-65
2021/08/02 00:50:59;;;;;;;29.65;17.07;;;;;;;21.23;77.87;100747.43;1852281;77;21525;-65
2021/08/02 00:53:29;;;;;;;23.85;16.52;;;;;;;21.20;77.86;100756.08;1851909;77;21089;-65
2021/08/02 00:56:02;;;;;;;30.30;16.75;;;;;;;21.19;77.84;100760.22;1851967;77;21128;-65
2021/08/02 00:58:34;;;;;;;25.43;15.60;;;;;;;21.17;77.82;100759.04;1852014;77;21058;-65
2021/08/02 01:01:05;;;;;;;27.60;16.02;;;;;;;21.15;77.82;100767.66;1851873;76;21078;-65
2021/08/02 01:03:34;;;;;;;27.95;15.58;;;;;;;21.14;77.76;100758.45;1851991;77;21506;-65
2021/08/02 01:06:05;;;;;;;24.30;15.58;;;;;;;21.13;77.70;100768.78;1850982;77;21267;-65
2021/08/02 01:08:38;;;;;;;30.10;17.07;;;;;;;21.12;77.74;100767.94;1851743;77;21093;-65
2021/08/02 01:11:14;;;;;;;29.32;16.82;;;;;;;21.11;77.57;100764.88;1852053;77;21146;-65
2021/08/02 01:13:45;;;;;;;32.83;18.23;;;;;;;21.11;77.55;100770.23;1851948;77;21103;-64
2021/08/02 01:16:14;;;;;;;21.42;15.28;;;;;;;21.09;77.68;100769.52;1851881;77;21043;-65
2021/08/02 01:18:46;;;;;;;23.57;14.80;;;;;;;21.06;77.80;100768.92;1852163;77;21512;-65
2021/08/02 01:21:19;;;;;;;27.87;17.45;;;;;;;21.05;77.50;100763.23;1851981;77;21098;-65
2021/08/02 01:23:51;;;;;;;31.45;19.35;;;;;;;21.04;77.46;100759.67;1851703;77;21168;-65
2021/08/02 01:26:46;;;;;;;40.00;27.13;;;;;;;21.05;77.28;100775.27;1851956;76;21575;-65
2021/08/02 01:29:56;;;;;;;41.18;30.65;;;;;;;21.06;77.14;100780.97;1851166;77;21142;-65
2021/08/02 01:32:26;;;;;;;36.77;26.25;;;;;;;21.01;77.71;100784.04;1852087;77;21551;-65
2021/08/02 01:34:59;;;;;;;40.12;27.70;;;;;;;20.96;77.86;100792.93;1850766;77;21142;-66
2021/08/02 01:37:28;;;;;;;36.88;23.90;;;;;;;20.95;77.79;100788.54;1852037;77;21110;-65
2021/08/02 01:39:58;;;;;;;29.05;21.15;;;;;;;20.97;77.52;100789.26;1852037;77;21160;-65
2021/08/02 01:42:28;;;;;;;32.90;19.42;;;;;;;20.95;77.78;100792.09;1850306;77;21243;-65
2021/08/02 01:44:58;;;;;;;22.70;15.75;;;;;;;20.91;77.89;100793.29;1851994;77;21164;-65
2021/08/02 01:47:37;;;;;;;26.62;16.30;;;;;;;20.90;77.78;100788.93;1851723;77;21103;-65
2021/08/02 01:50:27;;;;;;;25.97;15.83;;;;;;;20.89;77.71;100800.59;1851972;77;21075;-65
2021/08/02 01:53:16;;;;;;;25.08;16.60;;;;;;;20.90;77.49;100801.47;1851934;77;21062;-65
2021/08/02 01:55:49;;;;;;;28.38;17.48;;;;;;;20.88;77.44;100796.70;1851864;77;21086;-65
2021/08/02 01:58:18;;;;;;;29.12;18.90;;;;;;;20.85;77.63;100805.00;1852069;77;21071;-65
2021/08/02 02:00:52;;;;;;;27.13;16.17;;;;;;;20.79;77.63;100805.02;1848712;77;21130;-65
2021/08/02 02:03:25;;;;;;;23.85;16.25;;;;;;;20.76;77.79;100805.25;1851947;77;21067;-66
2021/08/02 02:06:07;;;;;;;22.77;17.10;;;;;;;20.73;77.82;100802.35;1851291;77;21161;-65
2021/08/02 02:09:03;;;;;;;23.45;19.37;;;;;;;20.74;77.61;100811.22;1851879;76;21067;-65
2021/08/02 02:11:35;;;;;;;27.62;19.10;;;;;;;20.71;77.66;100812.34;1834790;77;21110;-65
2021/08/02 02:14:07;;;;;;;21.77;15.60;;;;;;;20.68;77.86;100809.89;1848505;77;21180;-65
2021/08/02 02:16:40;;;;;;;19.23;13.95;;;;;;;20.65;78.01;100818.66;1852106;77;21051;-65
2021/08/02 02:19:11;;;;;;;19.02;13.83;;;;;;;20.60;78.00;100822.55;1851953;77;21216;-65
2021/08/02 02:21:41;;;;;;;20.17;14.20;;;;;;;20.57;77.79;100818.75;1851926;77;21070;-65
2021/08/02 02:24:11;;;;;;;22.07;14.75;;;;;;;20.55;78.06;100819.85;1852088;77;21164;-65
2021/08/02 02:26:42;;;;;;;21.10;14.75;;;;;;;20.52;78.28;100824.09;1852099;77;21520;-65
2021/08/02 02:29:12;;;;;;;26.30;16.15;;;;;;;20.49;78.39;100828.34;1852076;77;21129;-65
2021/08/02 02:31:44;;;;;;;28.90;24.30;;;;;;;20.49;78.54;100832.36;1851792;77;21446;-66
2021/08/02 02:34:14;;;;;;;36.10;31.55;;;;;;;20.49;78.50;100836.37;1851982;77;21070;-65
2021/08/02 02:36:45;;;;;;;34.85;26.57;;;;;;;20.48;78.58;100839.54;1852014;77;21047;-65
2021/08/02 02:39:16;;;;;;;25.70;18.95;;;;;;;20.53;78.45;100828.48;1852061;77;21026;-65
2021/08/02 02:41:45;;;;;;;24.40;16.02;;;;;;;20.54;78.32;100836.86;1851933;77;21050;-65
2021/08/02 02:44:16;;;;;;;20.05;15.72;;;;;;;20.56;78.13;100829.56;1851994;77;21195;-65
2021/08/02 02:46:46;;;;;;;20.62;13.53;;;;;;;20.61;77.85;100835.44;1851970;77;21140;-65
2021/08/02 02:49:18;;;;;;;18.27;13.58;;;;;;;20.65;77.63;100836.88;1852116;77;21124;-65
2021/08/02 02:51:52;;;;;;;26.02;16.05;;;;;;;20.70;77.48;100838.70;1851279;77;21093;-65
2021/08/02 02:54:22;;;;;;;;;;;;;;;20.78;77.27;100849.63;1854710;77;21031;-65
2021/08/02 02:56:56;;;;;;;25.30;15.20;;;;;;;20.83;76.99;100846.11;1851923;77;20487;-65
2021/08/02 02:59:27;;;;;;;19.75;14.80;;;;;;;20.93;76.81;100851.56;1852037;77;21090;-65
2021/08/02 03:01:58;;;;;;;19.52;12.85;;;;;;;21.05;76.33;100844.38;1852017;77;21536;-65
2021/08/02 03:04:31;;;;;;;23.62;13.80;;;;;;;21.18;75.91;100848.23;1852083;77;21043;-65
2021/08/02 03:07:02;;;;;;;17.92;12.65;;;;;;;21.32;75.51;100844.41;1852083;77;21481;-65
2021/08/02 03:09:33;;;;;;;20.25;12.40;;;;;;;21.47;74.64;100853.02;1851799;76;21576;-65
2021/08/02 03:12:02;;;;;;;16.77;11.43;;;;;;;21.61;74.08;100853.23;1852018;77;21466;-65
2021/08/02 03:14:32;;;;;;;15.38;10.60;;;;;;;21.68;73.80;100856.59;1852056;77;21046;-65
2021/08/02 03:17:01;;;;;;;16.50;11.00;;;;;;;21.72;73.57;100859.38;1851957;77;21540;-65
2021/08/02 03:19:30;;;;;;;16.32;11.05;;;;;;;21.83;73.56;100854.45;1851850;77;21183;-66
2021/08/02 03:22:00;;;;;;;17.52;10.58;;;;;;;21.96;73.19;100857.78;1851974;77;21066;-66
2021/08/02 03:24:38;;;;;;;16.80;11.28;;;;;;;22.08;72.96;100859.08;1852135;77;21111;-66
2021/08/02 03:27:28;;;;;;;20.27;12.65;;;;;;;22.17;72.38;100866.33;1851039;76;21062;-66
2021/08/02 03:29:59;;;;;;;21.85;15.68;;;;;;;22.30;72.11;100865.66;1851196;77;21106;-66
2021/08/02 03:32:31;;;;;;;22.07;15.80;;;;;;;22.41;71.65;100867.41;1851327;77;21055;-65
2021/08/02 03:35:06;;;;;;;18.52;12.35;;;;;;;22.56;71.62;100866.56;1851888;77;21126;-65
2021/08/02 03:37:37;;;;;;;17.82;12.18;;;;;;;22.72;71.51;100872.74;1851932;77;21051;-66
2021/08/02 03:40:08;;;;;;;19.12;11.88;;;;;;;22.88;70.98;100874.94;1851927;77;21023;-65
2021/08/02 03:42:41;;;;;;;19.07;10.90;;;;;;;22.97;70.67;100878.64;1851764;76;21539;-66
2021/08/02 03:45:11;;;;;;;15.98;10.90;;;;;;;23.09;70.23;100876.20;1852081;77;21578;-66
2021/08/02 03:47:41;;;;;;;15.45;10.28;;;;;;;23.12;70.12;100880.81;1851956;77;21109;-67
2021/08/02 03:50:11;;;;;;;17.32;11.00;;;;;;;23.23;69.97;100879.01;1851914;77;21097;-65
2021/08/02 03:52:40;;;;;;;14.85;9.50;;;;;;;23.32;69.81;100878.17;1851940;77;21094;-65
2021/08/02 03:55:12;;;;;;;15.48;10.28;;;;;;;23.45;69.77;100878.74;1851744;77;21552;-67
2021/08/02 03:57:41;;;;;;;19.70;11.38;;;;;;;23.64;69.56;100883.77;1852041;77;21053;-66
2021/08/02 04:00:10;;;;;;;20.77;11.05;;;;;;;23.76;68.80;100882.65;1852009;77;21439;-66
2021/08/02 04:02:41;;;;;;;14.95;10.93;;;;;;;23.85;68.35;100877.80;1852055;77;21474;-65
2021/08/02 04:05:10;;;;;;;16.12;11.22;;;;;;;23.98;67.98;100886.91;1852044;77;21133;-62
2021/08/02 04:07:46;;;;;;;18.12;11.88;;;;;;;24.17;67.81;100885.17;1851952;77;21007;-62
2021/08/02 04:10:11;;;;;;;21.50;12.28;;;;;;;24.37;67.12;100890.02;1850330;77;21208;-62
2021/08/02 04:12:40;;;;;;;24.63;17.12;;;;;;;24.59;66.85;100888.34;1852005;77;21180;-62
2021/08/02 04:15:11;;;;;;;24.18;14.85;;;;;;;24.82;65.97;100883.91;1852149;77;21121;-62
2021/08/02 04:17:40;;;;;;;27.00;12.93;;;;;;;24.99;65.53;100879.09;1852045;77;21098;-62
2021/08/02 04:20:10;;;;;;;25.82;12.63;;;;;;;25.15;64.96;100881.61;1851940;77;21046;-62
2021/08/02 04:22:39;;;;;;;20.80;13.25;;;;;;;25.30;64.52;100880.11;1852007;77;21092;-63
2021/08/02 04:25:09;;;;;;;21.00;12.13;;;;;;;25.53;64.46;100890.46;1852057;77;21047;-62
2021/08/02 04:27:38;;;;;;;14.43;10.95;;;;;;;25.81;64.27;100892.05;1852004;77;21132;-61
2021/08/02 04:30:07;;;;;;;16.32;11.12;;;;;;;26.09;63.97;100885.72;1852065;77;21051;-62
2021/08/02 04:32:36;;;;;;;15.48;10.78;;;;;;;26.39;63.60;100888.44;1852013;77;21117;-63
2021/08/02 04:35:05;;;;;;;20.43;9.65;;;;;;;26.63;63.22;100887.76;1852021;77;21043;-62
2021/08/02 04:37:34;;;;;;;16.45;11.10;;;;;;;26.91;62.84;100888.41;1852031;77;21043;-62
2021/08/02 04:40:03;;;;;;;17.42;10.88;;;;;;;27.21;62.68;100879.38;1852025;77;21054;-62
2021/08/02 04:42:36;;;;;;;20.50;11.85;;;;;;;27.51;62.22;100882.49;1852013;77;21050;-62
2021/08/02 04:45:07;;;;;;;19.02;11.10;;;;;;;27.70;61.51;100880.83;1851893;77;21046;-62
2021/08/02 04:47:35;;;;;;;19.37;11.43;;;;;;;27.88;61.01;100886.56;1852103;77;21109;-62
2021/08/02 04:50:05;;;;;;;15.68;11.28;;;;;;;28.03;60.85;100879.47;1852028;77;21023;-62
2021/08/02 04:52:33;;;;;;;16.48;10.85;;;;;;;28.28;60.57;100886.22;1852026;77;21043;-62
2021/08/02 04:55:02;;;;;;;16.10;10.70;;;;;;;28.47;60.16;100880.40;1852026;77;21124;-62
2021/08/02 04:57:31;;;;;;;16.30;11.12;;;;;;;28.61;59.82;100877.52;1851939;77;21117;-62
2021/08/02 04:59:59;;;;;;;20.48;9.78;;;;;;;28.82;59.76;100874.20;1852001;77;21485;-62
2021/08/02 05:02:28;;;;;;;15.75;10.43;;;;;;;29.03;59.63;100880.87;1852076;77;21103;-62
2021/08/02 05:04:57;;;;;;;13.43;9.40;;;;;;;29.26;59.40;100873.66;1852011;77;21015;-62
2021/08/02 05:07:26;;;;;;;15.28;10.18;;;;;;;29.58;59.29;100870.38;1852013;77;21063;-62
2021/08/02 05:09:54;;;;;;;17.35;9.68;;;;;;;29.98;58.83;100871.09;1851999;77;21134;-61
2021/08/02 05:12:23;;;;;;;11.40;8.88;;;;;;;30.35;58.35;100872.10;1857553;77;21090;-61
2021/08/02 05:14:52;;;;;;;12.65;8.75;;;;;;;30.66;58.00;100876.51;1858367;77;21054;-62
2021/08/02 05:17:21;;;;;;;14.03;9.03;;;;;;;30.94;57.36;100869.88;1858328;77;21207;-61
2021/08/02 05:19:49;;;;;;;13.55;9.40;;;;;;;31.18;56.74;100874.66;1858388;77;21084;-61
2021/08/02 05:22:18;;;;;;;10.13;8.25;;;;;;;31.31;56.33;100867.98;1858255;77;21121;-62
2021/08/02 05:24:47;;;;;;;12.00;8.15;;;;;;;31.63;55.76;100872.64;1858349;77;21043;-62
2021/08/02 05:27:15;;;;;;;11.33;7.97;;;;;;;31.93;55.01;100870.58;1858269;77;21096;-62
2021/08/02 05:29:44;;;;;;;11.15;7.80;;;;;;;32.27;54.35;100868.95;1858362;77;21042;-62
2021/08/02 05:32:13;;;;;;;11.38;7.67;;;;;;;32.67;53.33;100863.77;1858285;77;21030;-62
2021/08/02 05:34:43;;;;;;;10.70;7.20;;;;;;;33.01;51.62;100868.81;1858268;77;21042;-62
2021/08/02 05:37:13;;;;;;;10.60;7.60;;;;;;;33.35;50.51;100872.52;1858179;77;21489;-63
2021/08/02 05:39:42;;;;;;;9.75;7.62;;;;;;;33.69;49.57;100868.48;1858274;77;21118;-62
2021/08/02 05:42:11;;;;;;;11.00;8.70;;;;;;;34.06;48.39;100857.97;1858239;77;21493;-62
2021/08/02 05:44:40;;;;;;;10.13;7.12;;;;;;;34.26;47.58;100861.53;1858240;77;21136;-62
2021/08/02 05:47:11;;;;;;;11.10;8.50;;;;;;;34.47;47.06;100856.30;1858270;77;21120;-62
2021/08/02 05:49:39;;;;;;;8.78;6.55;;;;;;;34.47;47.06;100856.30;1858126;77;21124;-63
2021/08/02 05:52:08;;;;;;;9.95;7.35;;;;;;;34.64;46.17;100855.83;1858470;77;21050;-61
2021/08/02 05:54:37;;;;;;;7.70;6.65;;;;;;;34.79;45.49;100855.08;1858270;77;21026;-61
2021/08/02 05:57:06;;;;;;;7.95;7.15;;;;;;;34.93;44.47;100852.57;1858457;77;21058;-62
2021/08/02 05:59:36;;;;;;;9.03;6.30;;;;;;;35.10;44.07;100846.59;1858454;77;21473;-62
2021/08/02 06:02:05;;;;;;;9.33;6.47;;;;;;;35.29;43.44;100842.09;1858269;77;21120;-62
2021/08/02 06:04:34;;;;;;;7.35;6.55;;;;;;;35.46;42.53;100839.66;1858161;77;21579;-62
2021/08/02 06:07:02;;;;;;;20.57;7.60;;;;;;;35.59;41.85;100838.17;1858298;77;21164;-62
2021/08/02 06:09:31;;;;;;;17.82;6.95;;;;;;;35.81;41.12;100836.44;1858267;77;21027;-61
2021/08/02 06:12:01;;;;;;;10.82;6.25;;;;;;;36.03;40.07;100832.22;1858219;77;21101;-62
2021/08/02 06:14:30;;;;;;;9.00;6.15;;;;;;;36.20;39.87;100833.02;1858253;77;21050;-61
2021/08/02 06:16:58;;;;;;;7.70;6.10;;;;;;;36.45;39.75;100831.05;1858122;77;21148;-62
2021/08/02 06:19:27;;;;;;;9.25;6.58;;;;;;;36.67;38.81;100824.58;1858363;77;21086;-61
2021/08/02 06:21:56;;;;;;;11.05;6.60;;;;;;;36.89;38.46;100827.66;1858192;77;21055;-62
2021/08/02 06:24:24;;;;;;;9.00;6.37;;;;;;;37.04;37.84;100825.03;1858291;77;21094;-61
2021/08/02 06:26:53;;;;;;;7.30;5.83;;;;;;;37.18;37.63;100825.14;1858297;77;21054;-61
2021/08/02 06:29:22;;;;;;;10.15;5.62;;;;;;;37.41;37.03;100822.17;1858139;77;21061;-62
2021/08/02 06:31:50;;;;;;;6.90;6.08;;;;;;;37.40;36.59;100829.55;1858249;77;21022;-62
2021/08/02 06:34:19;;;;;;;7.95;5.35;;;;;;;37.52;36.10;100824.61;1858242;77;21156;-62
2021/08/02 06:36:48;;;;;;;8.33;5.40;;;;;;;37.68;35.61;100825.86;1858244;77;21192;-61
2021/08/02 06:39:17;;;;;;;8.90;5.53;;;;;;;37.80;34.38;100820.67;1858266;77;21054;-62
2021/08/02 06:41:45;;;;;;;7.97;5.05;;;;;;;37.90;34.09;100824.73;1858181;77;21128;-63
2021/08/02 06:44:14;;;;;;;8.40;4.55;;;;;;;38.10;33.29;100817.52;1858216;77;21561;-62
2021/08/02 06:46:43;;;;;;;7.67;5.37;;;;;;;38.34;32.95;100811.43;1858215;77;21093;-61
2021/08/02 06:49:12;;;;;;;8.78;5.95;;;;;;;38.31;32.51;100812.77;1858248;77;21066;-62
2021/08/02 06:51:41;;;;;;;9.40;5.42;;;;;;;38.34;32.34;100812.26;1858293;77;21082;-62
2021/08/02 06:54:10;;;;;;;9.50;5.40;;;;;;;38.60;32.40;100808.69;1858226;77;21030;-62
2021/08/02 06:56:38;;;;;;;6.70;5.97;;;;;;;38.84;32.31;100805.84;1858157;77;21508;-62
2021/08/02 06:59:07;;;;;;;10.60;5.47;;;;;;;39.05;32.00;100810.68;1858249;77;21116;-62
2021/08/02 07:01:36;;;;;;;9.03;5.45;;;;;;;39.10;31.53;100804.42;1858252;77;21078;-62
2021/08/02 07:04:05;;;;;;;11.10;5.90;;;;;;;38.93;31.89;100798.86;1858214;77;21485;-61
2021/08/02 07:06:34;;;;;;;10.10;6.12;;;;;;;38.89;31.66;100805.95;1858228;77;21070;-62
2021/08/02 07:09:03;;;;;;;13.35;7.65;;;;;;;39.03;31.81;100800.47;1858100;77;21066;-62
2021/08/02 07:11:32;;;;;;;12.65;6.15;;;;;;;39.25;32.34;100810.73;1858454;77;21074;-62
2021/08/02 07:14:01;;;;;;;9.50;5.55;;;;;;;39.37;31.86;100805.44;1852309;77;21078;-62
2021/08/02 07:16:30;;;;;;;10.72;5.92;;;;;;;39.52;31.57;100799.36;1851959;76;21525;-62
2021/08/02 07:18:59;;;;;;;9.70;7.10;;;;;;;39.71;31.58;100795.82;1852004;77;21051;-61
2021/08/02 07:21:28;;;;;;;14.50;7.30;;;;;;;39.87;31.47;100800.17;1851861;77;21027;-62
2021/08/02 07:23:56;;;;;;;9.10;5.42;;;;;;;39.94;31.03;100802.23;1851922;77;21038;-62
2021/08/02 07:26:26;;;;;;;8.45;5.50;;;;;;;40.06;30.20;100792.45;1851935;77;21132;-62
2021/08/02 07:28:58;;;;;;;7.35;5.25;;;;;;;39.89;29.59;100793.30;1852056;77;21038;-62
2021/08/02 07:31:26;;;;;;;6.72;5.28;;;;;;;40.00;29.48;100795.69;1851823;77;21058;-62
2021/08/02 07:33:55;;;;;;;8.23;5.08;;;;;;;40.07;28.85;100792.20;1851888;77;21047;-63
2021/08/02 07:36:24;;;;;;;6.60;5.05;;;;;;;40.21;28.57;100784.92;1851928;77;21090;-62
2021/08/02 07:38:53;;;;;;;8.75;5.65;;;;;;;40.22;27.99;100786.05;1851945;77;21113;-62
2021/08/02 07:41:23;;;;;;;12.45;5.35;;;;;;;40.11;27.67;100781.50;1851937;77;21050;-62
2021/08/02 07:43:52;;;;;;;10.40;5.75;;;;;;;40.20;27.86;100784.09;1851913;77;21043;-62
2021/08/02 07:46:20;;;;;;;7.37;6.10;;;;;;;40.27;27.63;100777.84;1851879;77;21015;-62
2021/08/02 07:48:52;;;;;;;8.58;5.40;;;;;;;40.49;27.86;100783.94;1851941;77;21165;-62
2021/08/02 07:51:20;;;;;;;7.80;5.40;;;;;;;40.57;27.24;100780.70;1852110;77;21051;-62
2021/08/02 07:53:49;;;;;;;11.90;6.28;;;;;;;40.70;27.54;100780.28;1851941;77;21082;-61
2021/08/02 07:56:18;;;;;;;12.35;5.42;;;;;;;40.92;27.52;100786.33;1851920;77;21489;-62
2021/08/02 07:58:47;;;;;;;8.53;5.60;;;;;;;41.12;27.01;100784.86;1851884;77;21074;-63
2021/08/02 08:01:16;;;;;;;9.80;5.50;;;;;;;40.95;26.85;100784.44;1852003;77;21027;-62
2021/08/02 08:03:44;;;;;;;8.80;5.90;;;;;;;40.97;27.30;100783.63;1852006;77;21050;-61
2021/08/02 08:06:13;;;;;;;8.73;5.78;;;;;;;41.24;27.37;100784.15;1852019;77;21094;-62
2021/08/02 08:08:42;;;;;;;7.55;4.90;;;;;;;41.51;27.07;100783.26;1852042;77;21027;-62
2021/08/02 08:11:11;;;;;;;9.73;5.22;;;;;;;41.64;26.58;100781.44;1852031;77;21030;-62
2021/08/02 08:13:40;;;;;;;8.40;6.45;;;;;;;41.54;25.98;100779.42;1851710;77;21058;-62
2021/08/02 08:16:09;;;;;;;10.28;6.03;;;;;;;41.48;26.44;100773.03;1851920;77;21538;-62
2021/08/02 08:18:38;;;;;;;9.93;5.70;;;;;;;41.77;26.70;100771.84;1851955;77;21066;-62
2021/08/02 08:21:07;;;;;;;8.85;5.72;;;;;;;41.99;26.21;100760.62;1851903;77;21091;-62
2021/08/02 08:23:36;;;;;;;11.03;5.65;;;;;;;42.24;26.14;100768.23;1851898;77;21493;-62
2021/08/02 08:26:04;;;;;;;12.37;5.58;;;;;;;42.49;25.57;100762.52;1851750;77;21062;-62
2021/08/02 08:28:33;;;;;;;13.00;5.55;;;;;;;42.66;25.10;100755.34;1851964;77;21184;-61
2021/08/02 08:31:02;;;;;;;9.90;5.37;;;;;;;42.68;25.00;100755.90;1851895;77;21129;-62
2021/08/02 08:33:30;;;;;;;10.25;5.53;;;;;;;42.84;24.91;100763.13;1852020;77;21051;-62
2021/08/02 08:35:59;;;;;;;9.75;6.58;;;;;;;42.80;24.80;100760.62;1851936;77;21018;-62
2021/08/02 08:38:28;;;;;;;12.65;5.12;;;;;;;42.91;24.48;100754.02;1851947;77;21054;-63
2021/08/02 08:40:57;;;;;;;10.63;5.87;;;;;;;42.99;24.54;100754.84;1871176;76;21165;-61
2021/08/02 08:43:26;;;;;;;8.70;5.55;;;;;;;43.06;24.10;100759.30;1883617;76;21122;-61
2021/08/02 08:45:54;;;;;;;12.35;5.40;;;;;;;43.11;23.99;100756.53;1883706;76;21052;-61
2021/08/02 08:48:23;;;;;;;10.60;6.10;;;;;;;43.19;23.61;100756.78;1883891;76;21084;-61
2021/08/02 08:50:53;;;;;;;7.97;5.85;;;;;;;43.32;24.11;100760.13;1883736;76;21149;-61
2021/08/02 08:53:23;;;;;;;14.00;5.30;;;;;;;43.44;23.33;100753.75;1883723;76;21686;-60
2021/08/02 08:55:52;;;;;;;14.95;6.03;;;;;;;43.52;23.17;100751.78;1883747;76;21490;-61
2021/08/02 08:58:21;;;;;;;12.75;6.28;;;;;;;43.53;23.41;100742.90;1883761;76;21060;-61
2021/08/02 09:00:51;;;;;;;12.95;9.43;;;;;;;43.38;23.85;100746.00;1883723;76;21052;-60
2021/08/02 09:03:19;;;;;;;7.97;5.67;;;;;;;43.46;24.04;100745.13;1882513;76;21040;-60
2021/08/02 09:05:49;;;;;;;9.28;5.47;;;;;;;43.47;23.11;100744.03;1883867;76;21127;-61
2021/08/02 09:08:20;;;;;;;9.85;6.33;;;;;;;43.23;23.50;100745.97;1883764;76;21499;-61
2021/08/02 09:11:00;;;;;;;13.13;5.97;;;;;;;43.17;23.42;100750.69;1883939;76;21048;-61
2021/08/02 09:13:34;;;;;;;11.95;6.40;;;;;;;43.03;23.20;100744.61;1885635;76;21075;-61
2021/08/02 09:16:25;;;;;;;7.87;5.83;;;;;;;43.09;23.86;100742.09;1896295;75;21064;-61
2021/08/02 09:18:59;;;;;;;11.22;7.20;;;;;;;42.97;23.84;100743.77;1896392;76;21117;-61
2021/08/02 09:21:28;;;;;;;9.55;6.40;;;;;;;42.95;23.89;100734.35;1896415;76;21535;-61
2021/08/02 09:23:59;;;;;;;11.63;6.15;;;;;;;43.08;23.41;100737.69;1896421;76;21067;-61
2021/08/02 09:26:36;;;;;;;11.28;5.65;;;;;;;43.04;23.85;100733.81;1896293;76;21027;-61
2021/08/02 09:29:05;;;;;;;14.18;6.10;;;;;;;43.03;23.30;100729.38;1896424;76;21587;-61
2021/08/02 09:31:36;;;;;;;9.63;5.90;;;;;;;43.08;22.95;100732.14;1896537;76;21160;-61
2021/08/02 09:34:07;;;;;;;14.20;6.87;;;;;;;42.85;22.67;100728.80;1896657;76;21028;-61
2021/08/02 09:36:53;;;;;;;8.10;5.83;;;;;;;43.03;23.01;100736.30;1896671;76;21056;-61
2021/08/02 09:39:17;;;;;;;17.55;7.20;;;;;;;42.88;22.32;100731.00;1895827;76;21129;-61
2021/08/02 09:41:46;;;;;;;15.60;6.92;;;;;;;42.94;23.17;100729.09;1896396;76;21153;-61
2021/08/02 09:44:20;;;;;;;14.13;6.97;;;;;;;43.15;22.45;100724.39;1896414;75;21540;-61
2021/08/02 09:47:01;;;;;;;7.80;5.75;;;;;;;43.25;22.59;100720.20;1895211;76;21494;-61
2021/08/02 09:49:47;;;;;;;11.03;6.13;;;;;;;43.14;21.92;100721.33;1896520;76;21051;-61
2021/08/02 09:52:17;;;;;;;11.50;6.42;;;;;;;42.94;21.95;100718.01;1896492;76;21106;-61
2021/08/02 09:54:46;;;;;;;13.18;6.05;;;;;;;42.92;22.22;100716.93;1896634;75;21562;-61
2021/08/02 09:57:14;;;;;;;8.90;5.25;;;;;;;42.94;22.62;100714.71;1896368;76;21583;-60
2021/08/02 09:59:44;;;;;;;12.33;6.47;;;;;;;42.93;22.68;100707.50;1896387;76;21043;-62
2021/08/02 10:02:14;;;;;;;10.05;5.87;;;;;;;42.88;22.26;100708.84;1896418;76;21164;-61
2021/08/02 10:04:43;;;;;;;13.20;6.22;;;;;;;42.78;22.11;100704.70;1896417;76;21047;-61
2021/08/02 10:07:13;;;;;;;9.40;6.08;;;;;;;42.86;22.53;100699.98;1896386;76;21617;-60
2021/08/02 10:09:42;;;;;;;13.83;5.75;;;;;;;42.99;22.16;100702.22;1896618;76;21059;-60
2021/08/02 10:12:10;;;;;;;10.28;6.45;;;;;;;42.81;21.83;100699.98;1896395;76;21027;-61
2021/08/02 10:14:39;;;;;;;11.85;5.83;;;;;;;42.39;21.78;100696.89;1891684;76;21154;-60
2021/08/02 10:17:10;;;;;;;11.22;6.25;;;;;;;42.26;22.77;100690.47;1881225;76;21036;-61
2021/08/02 10:19:43;;;;;;;11.33;6.53;;;;;;;42.33;22.39;100684.13;1881483;76;21028;-61
2021/08/02 10:22:12;;;;;;;8.55;6.05;;;;;;;42.29;22.81;100681.64;1881248;76;21060;-61
2021/08/02 10:24:48;;;;;;;11.68;5.97;;;;;;;42.14;22.66;100672.20;1881369;76;21052;-60
2021/08/02 10:27:31;;;;;;;9.10;6.05;;;;;;;42.09;22.68;100674.94;1881193;76;21056;-61
2021/08/02 10:30:00;;;;;;;13.48;6.97;;;;;;;42.03;22.90;100673.24;1881362;76;21036;-61
2021/08/02 10:32:29;;;;;;;11.45;6.67;;;;;;;41.92;22.88;100669.61;1881335;76;21063;-60
2021/08/02 10:34:59;;;;;;;9.85;6.00;;;;;;;42.02;22.92;100671.59;1881232;76;21490;-60
2021/08/02 10:37:34;;;;;;;12.63;6.37;;;;;;;41.76;22.02;100671.50;1881418;76;21053;-61
2021/08/02 10:40:07;;;;;;;11.60;5.53;;;;;;;41.36;22.23;100672.92;1881220;76;21076;-60
2021/08/02 10:42:50;;;;;;;11.95;6.37;;;;;;;41.23;22.31;100665.11;1881331;76;21044;-61
2021/08/02 10:45:33;;;;;;;10.13;6.75;;;;;;;41.26;22.89;100661.80;1881290;76;21040;-61
2021/08/02 10:48:02;;;;;;;10.35;5.80;;;;;;;41.38;23.06;100661.05;1881000;76;21121;-61
2021/08/02 10:50:44;;;;;;;11.95;6.42;;;;;;;41.12;22.70;100660.59;1881243;76;21134;-61
2021/08/02 10:53:17;;;;;;;13.18;6.50;;;;;;;40.99;23.15;100655.80;1879867;76;21495;-61
2021/08/02 10:55:49;;;;;;;14.63;6.03;;;;;;;40.81;23.56;100647.94;1881273;76;21099;-61
2021/08/02 10:58:29;;;;;;;16.30;6.42;;;;;;;40.77;24.23;100656.44;1881143;76;21600;-61
2021/08/02 11:01:00;;;;;;;10.18;6.20;;;;;;;40.75;24.00;100648.97;1880301;76;21548;-61
2021/08/02 11:03:40;;;;;;;14.38;6.53;;;;;;;40.60;24.36;100656.54;1881443;76;21150;-61
2021/08/02 11:06:14;;;;;;;12.90;7.03;;;;;;;40.47;24.02;100652.28;1881194;76;21048;-61
2021/08/02 11:08:45;;;;;;;11.05;6.42;;;;;;;40.28;24.13;100652.62;1881079;76;21110;-61
2021/08/02 11:11:22;;;;;;;9.08;6.00;;;;;;;40.16;24.21;100648.39;1881269;76;21052;-61
2021/08/02 11:13:53;;;;;;;14.43;6.62;;;;;;;39.92;24.43;100643.16;1881228;76;21052;-61
2021/08/02 11:16:22;;;;;;;11.97;5.97;;;;;;;39.77;24.79;100646.53;1881327;76;21151;-61
2021/08/02 11:18:51;;;;;;;12.18;6.70;;;;;;;39.64;24.64;100649.64;1881208;76;21506;-61
2021/08/02 11:21:25;;;;;;;12.30;5.60;;;;;;;39.46;25.22;100647.50;1881220;76;21065;-61
2021/08/02 11:23:55;;;;;;;11.35;5.62;;;;;;;39.34;24.87;100644.84;1881350;76;21110;-61
2021/08/02 11:26:24;;;;;;;11.00;6.42;;;;;;;39.18;25.02;100638.27;1881198;76;21538;-61
2021/08/02 11:28:54;;;;;;;15.53;6.92;;;;;;;39.25;25.77;100633.12;1881319;76;21062;-61
2021/08/02 11:31:25;;;;;;;12.45;6.05;;;;;;;39.29;25.71;100630.14;1881182;76;21118;-62
2021/08/02 11:33:55;;;;;;;15.18;6.50;;;;;;;39.26;25.71;100630.11;1881306;76;21095;-61